Aérodrome :
LOGIN :

S'inscrire | Disclaimer

   EN    FR    IT 

 










Légende :    VFR   VFR Marginal   IFR   IFR Intensif   IFR Très Intensif
Visi : 
Plafond : 
>= 8 km
>= 3000ft
5 à 8 km
1000 à 3000 ft
1500m à 5 km
500 à 1000 ft
800 à 1500m
200 à 500 ft
< 800m
< 200 ft
Symboles :   Orages  Brouillard  Fortes neiges  Fortes précipitations  Vent > 20 kt
SIGMETs :   Divers  Orages  Givrage  Turbulence  Onde Orograph.  Cendres Volcan.







- Altitude de l'aérodrome : 433 ft
- Code IATA : CCF
- Voir les cartes d'approche


LFMK - Carcassonne

DERNIER METAR :
  • 242030Z AUTO 28003KT CAVOK 20/11 Q1017

METARs EXPIRÉS :
  • 242000Z AUTO 26003KT 9999 2900 NSC 21/11 Q1016
  • 241930Z AUTO 27003KT CAVOK 23/12 Q1016
  • 241900Z AUTO 28004KT CAVOK 24/11 Q1016
  • 241830Z AUTO 30006KT CAVOK 27/09 Q1016
  • 241800Z AUTO 31008KT CAVOK 28/09 Q1016 NOSIG

TAF TAF LFMK
Valide du 24 à 15h jusqu'au 25 à 15h UTC


241400Z 2415/2515 30010KT CAVOK
BECMG 2419/2421 VRB05KT
BECMG 2507/2509 28010KT
Pas de NOTAMs connus pour ce terrain.



MET'MAP, la Météo Aéronautique d'un coup d'oeil ! - Copyright ORBIFLY Décembre 2007 - Disclaimer

ORBIFLY MET'MAP TEAM :

Programmation & Développement : Alexandra Zaïnal
Conception & Développement : Baudouin d'Aumeries
Co-Programmation & Développement : Marc-Olivier Méhu
Soutien technique & logistique : Manuel Goepfert

Contact : metmap@orbifly.com




SOURCES & CREDITS :

   NOAA